sensor_id;sensor_type;location;lat;lon;timestamp;P1;durP1;ratioP1;P2;durP2;ratioP2
53959;SDS011;39866;48.638;-2.020;2023-02-15T00:01:38;31.65;;;24.75;;
53959;SDS011;39866;48.638;-2.020;2023-02-15T00:04:04;34.10;;;24.33;;
53959;SDS011;39866;48.638;-2.020;2023-02-15T00:06:31;30.13;;;23.33;;
53959;SDS011;39866;48.638;-2.020;2023-02-15T00:08:56;34.10;;;25.52;;
53959;SDS011;39866;48.638;-2.020;2023-02-15T00:11:22;34.58;;;24.70;;
53959;SDS011;39866;48.638;-2.020;2023-02-15T00:14:09;31.55;;;24.65;;
53959;SDS011;39866;48.638;-2.020;2023-02-15T00:16:37;34.72;;;25.23;;
53959;SDS011;39866;48.638;-2.020;2023-02-15T00:19:03;35.05;;;25.25;;
53959;SDS011;39866;48.638;-2.020;2023-02-15T00:21:29;31.15;;;24.98;;
53959;SDS011;39866;48.638;-2.020;2023-02-15T00:23:57;32.03;;;24.95;;
53959;SDS011;39866;48.638;-2.020;2023-02-15T00:26:24;32.85;;;24.88;;
53959;SDS011;39866;48.638;-2.020;2023-02-15T00:28:50;33.13;;;25.55;;
53959;SDS011;39866;48.638;-2.020;2023-02-15T00:31:16;33.45;;;25.30;;
53959;SDS011;39866;48.638;-2.020;2023-02-15T00:33:41;37.30;;;25.50;;
53959;SDS011;39866;48.638;-2.020;2023-02-15T00:36:07;32.60;;;24.98;;
53959;SDS011;39866;48.638;-2.020;2023-02-15T00:38:34;32.13;;;24.35;;
53959;SDS011;39866;48.638;-2.020;2023-02-15T00:41:00;32.30;;;24.40;;
53959;SDS011;39866;48.638;-2.020;2023-02-15T00:43:27;31.30;;;24.20;;
53959;SDS011;39866;48.638;-2.020;2023-02-15T00:45:54;31.88;;;24.73;;
53959;SDS011;39866;48.638;-2.020;2023-02-15T00:48:20;31.25;;;23.27;;
53959;SDS011;39866;48.638;-2.020;2023-02-15T00:50:49;33.42;;;23.48;;
53959;SDS011;39866;48.638;-2.020;2023-02-15T00:53:19;34.03;;;24.23;;
53959;SDS011;39866;48.638;-2.020;2023-02-15T00:55:45;30.70;;;24.17;;
53959;SDS011;39866;48.638;-2.020;2023-02-15T00:58:11;33.05;;;24.58;;
53959;SDS011;39866;48.638;-2.020;2023-02-15T01:00:37;32.47;;;25.27;;
53959;SDS011;39866;48.638;-2.020;2023-02-15T01:03:04;29.52;;;22.17;;
53959;SDS011;39866;48.638;-2.020;2023-02-15T01:05:29;30.02;;;23.08;;
53959;SDS011;39866;48.638;-2.020;2023-02-15T01:07:56;26.88;;;20.73;;
53959;SDS011;39866;48.638;-2.020;2023-02-15T01:10:22;30.27;;;23.92;;
53959;SDS011;39866;48.638;-2.020;2023-02-15T01:12:48;35.65;;;25.48;;
53959;SDS011;39866;48.638;-2.020;2023-02-15T01:15:15;30.27;;;22.38;;
53959;SDS011;39866;48.638;-2.020;2023-02-15T01:17:40;29.75;;;24.02;;
53959;SDS011;39866;48.638;-2.020;2023-02-15T01:20:06;30.75;;;24.42;;
53959;SDS011;39866;48.638;-2.020;2023-02-15T01:22:32;31.13;;;24.92;;
53959;SDS011;39866;48.638;-2.020;2023-02-15T01:24:57;32.30;;;24.08;;
53959;SDS011;39866;48.638;-2.020;2023-02-15T01:27:23;33.03;;;25.42;;
53959;SDS011;39866;48.638;-2.020;2023-02-15T01:29:48;32.20;;;24.38;;
53959;SDS011;39866;48.638;-2.020;2023-02-15T01:32:13;34.35;;;24.88;;
53959;SDS011;39866;48.638;-2.020;2023-02-15T01:34:39;32.42;;;23.45;;
53959;SDS011;39866;48.638;-2.020;2023-02-15T01:37:04;30.35;;;23.65;;
53959;SDS011;39866;48.638;-2.020;2023-02-15T01:39:29;32.03;;;24.42;;
53959;SDS011;39866;48.638;-2.020;2023-02-15T01:41:55;32.17;;;23.65;;
53959;SDS011;39866;48.638;-2.020;2023-02-15T01:47:18;31.95;;;24.00;;
53959;SDS011;39866;48.638;-2.020;2023-02-15T01:49:48;32.15;;;24.58;;
53959;SDS011;39866;48.638;-2.020;2023-02-15T01:52:25;33.50;;;24.05;;
53959;SDS011;39866;48.638;-2.020;2023-02-15T01:54:50;31.65;;;24.30;;
53959;SDS011;39866;48.638;-2.020;2023-02-15T01:57:16;31.52;;;23.20;;
53959;SDS011;39866;48.638;-2.020;2023-02-15T01:59:48;31.30;;;24.83;;
53959;SDS011;39866;48.638;-2.020;2023-02-15T02:02:18;32.38;;;23.70;;
53959;SDS011;39866;48.638;-2.020;2023-02-15T02:04:52;33.00;;;25.30;;
53959;SDS011;39866;48.638;-2.020;2023-02-15T02:07:22;31.20;;;23.90;;
53959;SDS011;39866;48.638;-2.020;2023-02-15T02:09:51;31.80;;;23.83;;
53959;SDS011;39866;48.638;-2.020;2023-02-15T02:12:17;28.98;;;23.30;;
53959;SDS011;39866;48.638;-2.020;2023-02-15T02:14:45;29.60;;;23.92;;
53959;SDS011;39866;48.638;-2.020;2023-02-15T02:22:58;34.33;;;25.17;;
53959;SDS011;39866;48.638;-2.020;2023-02-15T02:34:43;30.80;;;23.67;;
53959;SDS011;39866;48.638;-2.020;2023-02-15T02:37:28;34.10;;;24.70;;
53959;SDS011;39866;48.638;-2.020;2023-02-15T02:40:25;31.00;;;24.75;;
53959;SDS011;39866;48.638;-2.020;2023-02-15T02:43:11;32.30;;;24.23;;
53959;SDS011;39866;48.638;-2.020;2023-02-15T02:45:47;31.15;;;24.20;;
53959;SDS011;39866;48.638;-2.020;2023-02-15T02:48:21;30.35;;;23.88;;
53959;SDS011;39866;48.638;-2.020;2023-02-15T02:50:50;30.58;;;23.60;;
53959;SDS011;39866;48.638;-2.020;2023-02-15T02:53:16;34.22;;;25.23;;
53959;SDS011;39866;48.638;-2.020;2023-02-15T02:55:49;31.85;;;24.52;;
53959;SDS011;39866;48.638;-2.020;2023-02-15T02:58:39;31.80;;;24.50;;
53959;SDS011;39866;48.638;-2.020;2023-02-15T03:06:18;29.73;;;23.85;;
53959;SDS011;39866;48.638;-2.020;2023-02-15T03:08:50;29.95;;;23.42;;
53959;SDS011;39866;48.638;-2.020;2023-02-15T03:11:18;31.52;;;23.42;;
53959;SDS011;39866;48.638;-2.020;2023-02-15T03:13:44;30.90;;;23.80;;
53959;SDS011;39866;48.638;-2.020;2023-02-15T03:16:12;33.90;;;24.65;;
53959;SDS011;39866;48.638;-2.020;2023-02-15T03:21:34;32.78;;;24.27;;
53959;SDS011;39866;48.638;-2.020;2023-02-15T03:24:22;32.35;;;24.40;;
53959;SDS011;39866;48.638;-2.020;2023-02-15T03:26:51;32.35;;;24.00;;
53959;SDS011;39866;48.638;-2.020;2023-02-15T03:29:20;31.95;;;24.65;;
53959;SDS011;39866;48.638;-2.020;2023-02-15T03:31:51;34.25;;;24.95;;
53959;SDS011;39866;48.638;-2.020;2023-02-15T03:34:23;33.20;;;25.13;;
53959;SDS011;39866;48.638;-2.020;2023-02-15T03:42:53;31.48;;;24.05;;
53959;SDS011;39866;48.638;-2.020;2023-02-15T03:45:27;32.85;;;24.02;;
53959;SDS011;39866;48.638;-2.020;2023-02-15T03:47:55;35.72;;;24.17;;
53959;SDS011;39866;48.638;-2.020;2023-02-15T03:50:27;34.63;;;25.90;;
53959;SDS011;39866;48.638;-2.020;2023-02-15T03:53:15;34.83;;;24.08;;
53959;SDS011;39866;48.638;-2.020;2023-02-15T03:55:48;33.90;;;25.42;;
53959;SDS011;39866;48.638;-2.020;2023-02-15T03:58:17;34.33;;;24.98;;
53959;SDS011;39866;48.638;-2.020;2023-02-15T04:01:05;36.78;;;25.55;;
53959;SDS011;39866;48.638;-2.020;2023-02-15T04:04:12;33.10;;;24.30;;
53959;SDS011;39866;48.638;-2.020;2023-02-15T04:06:43;32.42;;;23.85;;
53959;SDS011;39866;48.638;-2.020;2023-02-15T04:09:08;30.98;;;24.30;;
53959;SDS011;39866;48.638;-2.020;2023-02-15T04:11:52;34.05;;;24.65;;
53959;SDS011;39866;48.638;-2.020;2023-02-15T04:14:17;32.53;;;25.48;;
53959;SDS011;39866;48.638;-2.020;2023-02-15T04:17:02;33.95;;;24.95;;
53959;SDS011;39866;48.638;-2.020;2023-02-15T04:19:30;33.83;;;25.63;;
53959;SDS011;39866;48.638;-2.020;2023-02-15T04:22:14;33.25;;;25.27;;
53959;SDS011;39866;48.638;-2.020;2023-02-15T04:24:58;30.35;;;24.25;;
53959;SDS011;39866;48.638;-2.020;2023-02-15T04:27:40;33.30;;;24.88;;
53959;SDS011;39866;48.638;-2.020;2023-02-15T04:30:07;31.92;;;25.30;;
53959;SDS011;39866;48.638;-2.020;2023-02-15T04:32:34;32.35;;;24.13;;
53959;SDS011;39866;48.638;-2.020;2023-02-15T04:35:00;33.10;;;24.73;;
53959;SDS011;39866;48.638;-2.020;2023-02-15T04:37:25;33.33;;;24.17;;
53959;SDS011;39866;48.638;-2.020;2023-02-15T04:39:51;34.80;;;25.98;;
53959;SDS011;39866;48.638;-2.020;2023-02-15T04:42:16;33.15;;;25.25;;
53959;SDS011;39866;48.638;-2.020;2023-02-15T04:44:42;33.05;;;24.27;;
53959;SDS011;39866;48.638;-2.020;2023-02-15T04:47:07;36.65;;;24.80;;
53959;SDS011;39866;48.638;-2.020;2023-02-15T04:49:32;32.35;;;24.58;;
53959;SDS011;39866;48.638;-2.020;2023-02-15T04:51:58;33.28;;;25.13;;
53959;SDS011;39866;48.638;-2.020;2023-02-15T04:54:23;33.28;;;25.73;;
53959;SDS011;39866;48.638;-2.020;2023-02-15T04:56:48;35.25;;;24.95;;
53959;SDS011;39866;48.638;-2.020;2023-02-15T04:59:14;34.38;;;23.77;;
53959;SDS011;39866;48.638;-2.020;2023-02-15T05:01:39;33.63;;;22.75;;
53959;SDS011;39866;48.638;-2.020;2023-02-15T05:04:05;31.23;;;22.73;;
53959;SDS011;39866;48.638;-2.020;2023-02-15T05:06:30;33.00;;;23.77;;
53959;SDS011;39866;48.638;-2.020;2023-02-15T05:08:55;31.95;;;22.70;;
53959;SDS011;39866;48.638;-2.020;2023-02-15T05:11:23;31.48;;;22.98;;
53959;SDS011;39866;48.638;-2.020;2023-02-15T05:13:49;29.50;;;21.83;;
53959;SDS011;39866;48.638;-2.020;2023-02-15T05:16:14;31.70;;;23.33;;
53959;SDS011;39866;48.638;-2.020;2023-02-15T05:18:40;32.30;;;22.50;;
53959;SDS011;39866;48.638;-2.020;2023-02-15T05:21:05;29.45;;;21.08;;
53959;SDS011;39866;48.638;-2.020;2023-02-15T05:23:30;26.90;;;20.98;;
53959;SDS011;39866;48.638;-2.020;2023-02-15T05:25:56;32.03;;;22.60;;
53959;SDS011;39866;48.638;-2.020;2023-02-15T05:28:39;29.10;;;22.42;;
53959;SDS011;39866;48.638;-2.020;2023-02-15T05:31:10;30.33;;;21.83;;
53959;SDS011;39866;48.638;-2.020;2023-02-15T05:33:41;28.17;;;21.13;;
53959;SDS011;39866;48.638;-2.020;2023-02-15T05:36:07;27.33;;;21.25;;
53959;SDS011;39866;48.638;-2.020;2023-02-15T05:38:32;31.50;;;22.45;;
53959;SDS011;39866;48.638;-2.020;2023-02-15T05:40:58;30.60;;;22.70;;
53959;SDS011;39866;48.638;-2.020;2023-02-15T05:43:24;28.50;;;22.35;;
53959;SDS011;39866;48.638;-2.020;2023-02-15T05:45:53;28.77;;;21.48;;
53959;SDS011;39866;48.638;-2.020;2023-02-15T05:48:20;29.92;;;21.95;;
53959;SDS011;39866;48.638;-2.020;2023-02-15T05:50:56;28.20;;;22.15;;
53959;SDS011;39866;48.638;-2.020;2023-02-15T05:53:25;26.70;;;20.83;;
53959;SDS011;39866;48.638;-2.020;2023-02-15T05:55:51;30.00;;;21.65;;
53959;SDS011;39866;48.638;-2.020;2023-02-15T05:58:17;27.70;;;21.05;;
53959;SDS011;39866;48.638;-2.020;2023-02-15T06:00:42;29.70;;;21.35;;
53959;SDS011;39866;48.638;-2.020;2023-02-15T06:03:08;28.80;;;22.15;;
53959;SDS011;39866;48.638;-2.020;2023-02-15T06:05:33;29.50;;;21.13;;
53959;SDS011;39866;48.638;-2.020;2023-02-15T06:07:59;27.83;;;20.67;;
53959;SDS011;39866;48.638;-2.020;2023-02-15T06:10:25;26.80;;;20.95;;
53959;SDS011;39866;48.638;-2.020;2023-02-15T06:12:50;30.45;;;20.60;;
53959;SDS011;39866;48.638;-2.020;2023-02-15T06:15:16;26.00;;;20.55;;
53959;SDS011;39866;48.638;-2.020;2023-02-15T06:17:41;27.35;;;20.13;;
53959;SDS011;39866;48.638;-2.020;2023-02-15T06:20:07;27.63;;;20.17;;
53959;SDS011;39866;48.638;-2.020;2023-02-15T06:22:33;28.15;;;20.48;;
53959;SDS011;39866;48.638;-2.020;2023-02-15T06:24:59;25.70;;;20.42;;
53959;SDS011;39866;48.638;-2.020;2023-02-15T06:27:24;27.23;;;20.83;;
53959;SDS011;39866;48.638;-2.020;2023-02-15T06:29:49;28.90;;;21.50;;
53959;SDS011;39866;48.638;-2.020;2023-02-15T06:32:15;27.88;;;21.63;;
53959;SDS011;39866;48.638;-2.020;2023-02-15T06:34:40;27.60;;;21.25;;
53959;SDS011;39866;48.638;-2.020;2023-02-15T06:37:05;28.00;;;20.70;;
53959;SDS011;39866;48.638;-2.020;2023-02-15T06:39:33;28.23;;;21.42;;
53959;SDS011;39866;48.638;-2.020;2023-02-15T06:41:58;28.65;;;21.42;;
53959;SDS011;39866;48.638;-2.020;2023-02-15T06:44:23;28.27;;;20.92;;
53959;SDS011;39866;48.638;-2.020;2023-02-15T06:46:48;29.63;;;20.42;;
53959;SDS011;39866;48.638;-2.020;2023-02-15T06:49:14;28.30;;;22.05;;
53959;SDS011;39866;48.638;-2.020;2023-02-15T06:51:39;27.48;;;21.33;;
53959;SDS011;39866;48.638;-2.020;2023-02-15T06:54:05;30.48;;;20.90;;
53959;SDS011;39866;48.638;-2.020;2023-02-15T06:56:30;26.17;;;20.58;;
53959;SDS011;39866;48.638;-2.020;2023-02-15T06:58:55;27.58;;;20.95;;
53959;SDS011;39866;48.638;-2.020;2023-02-15T07:01:21;27.02;;;21.48;;
53959;SDS011;39866;48.638;-2.020;2023-02-15T07:03:46;30.25;;;20.67;;
53959;SDS011;39866;48.638;-2.020;2023-02-15T07:06:11;27.42;;;20.92;;
53959;SDS011;39866;48.638;-2.020;2023-02-15T07:08:37;29.50;;;21.02;;
53959;SDS011;39866;48.638;-2.020;2023-02-15T07:11:04;29.30;;;21.15;;
53959;SDS011;39866;48.638;-2.020;2023-02-15T07:13:49;26.80;;;20.85;;
53959;SDS011;39866;48.638;-2.020;2023-02-15T07:16:14;26.15;;;20.15;;
53959;SDS011;39866;48.638;-2.020;2023-02-15T07:18:40;25.40;;;20.45;;
53959;SDS011;39866;48.638;-2.020;2023-02-15T07:21:05;27.30;;;19.73;;
53959;SDS011;39866;48.638;-2.020;2023-02-15T07:23:34;29.35;;;20.50;;
53959;SDS011;39866;48.638;-2.020;2023-02-15T07:26:01;29.40;;;21.23;;
53959;SDS011;39866;48.638;-2.020;2023-02-15T07:28:27;25.83;;;20.38;;
53959;SDS011;39866;48.638;-2.020;2023-02-15T07:30:52;26.70;;;20.45;;
53959;SDS011;39866;48.638;-2.020;2023-02-15T07:33:17;26.73;;;21.35;;
53959;SDS011;39866;48.638;-2.020;2023-02-15T07:35:49;30.80;;;22.38;;
53959;SDS011;39866;48.638;-2.020;2023-02-15T07:38:23;32.38;;;22.60;;
53959;SDS011;39866;48.638;-2.020;2023-02-15T07:40:49;27.10;;;21.73;;
53959;SDS011;39866;48.638;-2.020;2023-02-15T07:43:15;29.80;;;22.25;;
53959;SDS011;39866;48.638;-2.020;2023-02-15T07:45:40;26.02;;;20.55;;
53959;SDS011;39866;48.638;-2.020;2023-02-15T07:48:06;27.75;;;22.27;;
53959;SDS011;39866;48.638;-2.020;2023-02-15T07:50:32;29.05;;;22.52;;
53959;SDS011;39866;48.638;-2.020;2023-02-15T07:52:58;28.73;;;20.48;;
53959;SDS011;39866;48.638;-2.020;2023-02-15T07:55:25;27.23;;;19.42;;
53959;SDS011;39866;48.638;-2.020;2023-02-15T07:57:51;26.85;;;20.55;;
53959;SDS011;39866;48.638;-2.020;2023-02-15T08:00:17;25.90;;;20.30;;
53959;SDS011;39866;48.638;-2.020;2023-02-15T08:02:49;29.55;;;21.45;;
53959;SDS011;39866;48.638;-2.020;2023-02-15T08:05:35;26.42;;;20.75;;
53959;SDS011;39866;48.638;-2.020;2023-02-15T08:08:01;26.15;;;20.73;;
53959;SDS011;39866;48.638;-2.020;2023-02-15T08:10:26;27.33;;;20.77;;
53959;SDS011;39866;48.638;-2.020;2023-02-15T08:13:12;27.17;;;20.70;;
53959;SDS011;39866;48.638;-2.020;2023-02-15T08:15:37;25.90;;;19.88;;
53959;SDS011;39866;48.638;-2.020;2023-02-15T08:18:02;28.50;;;20.75;;
53959;SDS011;39866;48.638;-2.020;2023-02-15T08:20:28;24.92;;;19.90;;
53959;SDS011;39866;48.638;-2.020;2023-02-15T08:22:53;28.48;;;20.75;;
53959;SDS011;39866;48.638;-2.020;2023-02-15T08:25:18;26.80;;;20.38;;
53959;SDS011;39866;48.638;-2.020;2023-02-15T08:27:44;26.08;;;19.88;;
53959;SDS011;39866;48.638;-2.020;2023-02-15T08:30:09;28.65;;;21.55;;
53959;SDS011;39866;48.638;-2.020;2023-02-15T08:32:35;28.20;;;20.75;;
53959;SDS011;39866;48.638;-2.020;2023-02-15T08:35:00;33.08;;;21.05;;
53959;SDS011;39866;48.638;-2.020;2023-02-15T08:37:26;28.00;;;21.10;;
53959;SDS011;39866;48.638;-2.020;2023-02-15T08:39:51;29.85;;;20.83;;
53959;SDS011;39866;48.638;-2.020;2023-02-15T08:42:16;31.33;;;21.60;;
53959;SDS011;39866;48.638;-2.020;2023-02-15T08:44:42;28.00;;;21.25;;
53959;SDS011;39866;48.638;-2.020;2023-02-15T08:47:07;28.77;;;20.60;;
53959;SDS011;39866;48.638;-2.020;2023-02-15T08:49:33;32.72;;;21.77;;
53959;SDS011;39866;48.638;-2.020;2023-02-15T08:51:58;34.25;;;21.23;;
53959;SDS011;39866;48.638;-2.020;2023-02-15T08:54:24;26.92;;;21.05;;
53959;SDS011;39866;48.638;-2.020;2023-02-15T08:56:50;36.47;;;21.08;;
53959;SDS011;39866;48.638;-2.020;2023-02-15T08:59:16;28.42;;;20.75;;
53959;SDS011;39866;48.638;-2.020;2023-02-15T09:01:44;27.85;;;20.08;;
53959;SDS011;39866;48.638;-2.020;2023-02-15T09:04:10;26.67;;;20.42;;
53959;SDS011;39866;48.638;-2.020;2023-02-15T09:06:38;27.52;;;20.33;;
53959;SDS011;39866;48.638;-2.020;2023-02-15T09:09:04;26.00;;;19.98;;
53959;SDS011;39866;48.638;-2.020;2023-02-15T09:11:32;25.10;;;19.15;;
53959;SDS011;39866;48.638;-2.020;2023-02-15T09:14:06;28.55;;;19.27;;
53959;SDS011;39866;48.638;-2.020;2023-02-15T09:16:34;27.90;;;19.88;;
53959;SDS011;39866;48.638;-2.020;2023-02-15T09:19:01;25.77;;;19.45;;
53959;SDS011;39866;48.638;-2.020;2023-02-15T09:21:29;27.60;;;19.95;;
53959;SDS011;39866;48.638;-2.020;2023-02-15T09:23:56;27.83;;;19.98;;
53959;SDS011;39866;48.638;-2.020;2023-02-15T09:26:24;27.02;;;19.88;;
53959;SDS011;39866;48.638;-2.020;2023-02-15T09:28:52;27.30;;;19.98;;
53959;SDS011;39866;48.638;-2.020;2023-02-15T09:31:21;25.15;;;19.20;;
53959;SDS011;39866;48.638;-2.020;2023-02-15T09:33:48;27.20;;;20.10;;
53959;SDS011;39866;48.638;-2.020;2023-02-15T09:36:23;27.90;;;20.63;;
53959;SDS011;39866;48.638;-2.020;2023-02-15T09:39:19;25.67;;;20.25;;
53959;SDS011;39866;48.638;-2.020;2023-02-15T09:47:09;27.08;;;20.88;;
53959;SDS011;39866;48.638;-2.020;2023-02-15T09:55:09;27.17;;;21.63;;
53959;SDS011;39866;48.638;-2.020;2023-02-15T10:20:00;28.63;;;20.88;;
53959;SDS011;39866;48.638;-2.020;2023-02-15T10:28:17;32.92;;;21.33;;
53959;SDS011;39866;48.638;-2.020;2023-02-15T10:30:48;27.17;;;21.05;;
53959;SDS011;39866;48.638;-2.020;2023-02-15T10:44:45;27.15;;;21.00;;
53959;SDS011;39866;48.638;-2.020;2023-02-15T10:55:07;25.35;;;20.27;;
53959;SDS011;39866;48.638;-2.020;2023-02-15T10:57:39;26.70;;;19.70;;
53959;SDS011;39866;48.638;-2.020;2023-02-15T11:03:05;25.27;;;19.98;;
53959;SDS011;39866;48.638;-2.020;2023-02-15T11:06:00;28.30;;;19.80;;
53959;SDS011;39866;48.638;-2.020;2023-02-15T11:09:17;26.00;;;19.75;;
53959;SDS011;39866;48.638;-2.020;2023-02-15T11:11:26;25.05;;;19.65;;
53959;SDS011;39866;48.638;-2.020;2023-02-15T11:13:59;25.30;;;19.98;;
53959;SDS011;39866;48.638;-2.020;2023-02-15T11:16:36;25.30;;;19.70;;
53959;SDS011;39866;48.638;-2.020;2023-02-15T11:19:08;25.55;;;19.98;;
53959;SDS011;39866;48.638;-2.020;2023-02-15T11:21:40;25.98;;;19.90;;
53959;SDS011;39866;48.638;-2.020;2023-02-15T11:24:10;28.20;;;19.58;;
53959;SDS011;39866;48.638;-2.020;2023-02-15T11:26:48;27.20;;;20.88;;
53959;SDS011;39866;48.638;-2.020;2023-02-15T11:29:23;31.45;;;20.52;;
53959;SDS011;39866;48.638;-2.020;2023-02-15T11:31:59;26.35;;;19.42;;
53959;SDS011;39866;48.638;-2.020;2023-02-15T11:35:27;25.63;;;20.50;;
53959;SDS011;39866;48.638;-2.020;2023-02-15T11:40:15;25.13;;;20.15;;
53959;SDS011;39866;48.638;-2.020;2023-02-15T11:42:47;27.10;;;21.15;;
53959;SDS011;39866;48.638;-2.020;2023-02-15T11:45:30;26.65;;;22.30;;
53959;SDS011;39866;48.638;-2.020;2023-02-15T11:47:59;26.25;;;20.80;;
53959;SDS011;39866;48.638;-2.020;2023-02-15T11:50:27;29.40;;;21.38;;
53959;SDS011;39866;48.638;-2.020;2023-02-15T11:52:56;25.40;;;20.90;;
53959;SDS011;39866;48.638;-2.020;2023-02-15T11:55:25;26.98;;;21.15;;
53959;SDS011;39866;48.638;-2.020;2023-02-15T11:57:59;24.60;;;20.80;;
53959;SDS011;39866;48.638;-2.020;2023-02-15T12:00:39;28.48;;;21.65;;
53959;SDS011;39866;48.638;-2.020;2023-02-15T12:03:10;26.35;;;21.40;;
53959;SDS011;39866;48.638;-2.020;2023-02-15T12:05:42;26.95;;;22.65;;
53959;SDS011;39866;48.638;-2.020;2023-02-15T12:08:19;25.27;;;20.88;;
53959;SDS011;39866;48.638;-2.020;2023-02-15T12:10:57;24.30;;;21.05;;
53959;SDS011;39866;48.638;-2.020;2023-02-15T12:13:26;27.00;;;21.00;;
53959;SDS011;39866;48.638;-2.020;2023-02-15T12:15:52;27.42;;;21.52;;
53959;SDS011;39866;48.638;-2.020;2023-02-15T12:20:52;26.23;;;20.75;;
53959;SDS011;39866;48.638;-2.020;2023-02-15T12:23:17;25.63;;;21.52;;
53959;SDS011;39866;48.638;-2.020;2023-02-15T12:25:54;30.23;;;23.77;;
53959;SDS011;39866;48.638;-2.020;2023-02-15T12:28:40;25.60;;;22.00;;
53959;SDS011;39866;48.638;-2.020;2023-02-15T12:31:17;26.73;;;22.73;;
53959;SDS011;39866;48.638;-2.020;2023-02-15T12:33:46;29.48;;;24.27;;
53959;SDS011;39866;48.638;-2.020;2023-02-15T12:38:41;41.25;;;28.80;;
53959;SDS011;39866;48.638;-2.020;2023-02-15T12:41:22;27.23;;;22.27;;
53959;SDS011;39866;48.638;-2.020;2023-02-15T12:44:02;30.90;;;22.75;;
53959;SDS011;39866;48.638;-2.020;2023-02-15T12:46:28;36.70;;;23.67;;
53959;SDS011;39866;48.638;-2.020;2023-02-15T12:49:04;33.45;;;23.60;;
53959;SDS011;39866;48.638;-2.020;2023-02-15T12:51:46;30.58;;;23.45;;
53959;SDS011;39866;48.638;-2.020;2023-02-15T12:56:51;39.80;;;24.83;;
53959;SDS011;39866;48.638;-2.020;2023-02-15T12:59:16;24.50;;;21.35;;
53959;SDS011;39866;48.638;-2.020;2023-02-15T13:01:46;24.10;;;19.77;;
53959;SDS011;39866;48.638;-2.020;2023-02-15T13:04:21;24.83;;;21.67;;
53959;SDS011;39866;48.638;-2.020;2023-02-15T13:06:49;24.77;;;20.08;;
53959;SDS011;39866;48.638;-2.020;2023-02-15T13:09:19;23.70;;;20.10;;
53959;SDS011;39866;48.638;-2.020;2023-02-15T13:11:50;24.70;;;20.17;;
53959;SDS011;39866;48.638;-2.020;2023-02-15T13:16:47;22.20;;;19.30;;
53959;SDS011;39866;48.638;-2.020;2023-02-15T13:21:54;22.35;;;18.48;;
53959;SDS011;39866;48.638;-2.020;2023-02-15T13:24:25;24.70;;;19.02;;
53959;SDS011;39866;48.638;-2.020;2023-02-15T13:26:54;21.30;;;18.67;;
53959;SDS011;39866;48.638;-2.020;2023-02-15T13:29:23;24.05;;;18.85;;
53959;SDS011;39866;48.638;-2.020;2023-02-15T13:31:51;24.70;;;19.48;;
53959;SDS011;39866;48.638;-2.020;2023-02-15T13:37:06;22.77;;;18.10;;
53959;SDS011;39866;48.638;-2.020;2023-02-15T13:39:42;23.25;;;18.20;;
53959;SDS011;39866;48.638;-2.020;2023-02-15T13:42:36;24.00;;;19.40;;
53959;SDS011;39866;48.638;-2.020;2023-02-15T13:56:13;24.25;;;19.27;;
53959;SDS011;39866;48.638;-2.020;2023-02-15T14:09:35;25.05;;;20.25;;
53959;SDS011;39866;48.638;-2.020;2023-02-15T14:17:56;26.15;;;21.60;;
53959;SDS011;39866;48.638;-2.020;2023-02-15T14:20:36;25.27;;;19.75;;
53959;SDS011;39866;48.638;-2.020;2023-02-15T14:25:58;24.33;;;20.77;;
53959;SDS011;39866;48.638;-2.020;2023-02-15T14:31:11;23.88;;;20.08;;
53959;SDS011;39866;48.638;-2.020;2023-02-15T14:33:39;27.83;;;19.55;;
53959;SDS011;39866;48.638;-2.020;2023-02-15T14:36:10;26.38;;;19.58;;
53959;SDS011;39866;48.638;-2.020;2023-02-15T14:44:56;23.27;;;16.70;;
53959;SDS011;39866;48.638;-2.020;2023-02-15T14:47:26;19.67;;;16.40;;
53959;SDS011;39866;48.638;-2.020;2023-02-15T14:52:24;22.07;;;17.63;;
53959;SDS011;39866;48.638;-2.020;2023-02-15T15:02:13;20.02;;;17.70;;
53959;SDS011;39866;48.638;-2.020;2023-02-15T15:04:43;25.15;;;18.27;;
53959;SDS011;39866;48.638;-2.020;2023-02-15T15:07:25;20.85;;;17.90;;
53959;SDS011;39866;48.638;-2.020;2023-02-15T15:10:18;21.58;;;17.38;;
53959;SDS011;39866;48.638;-2.020;2023-02-15T15:12:54;22.52;;;17.60;;
53959;SDS011;39866;48.638;-2.020;2023-02-15T15:20:37;22.63;;;17.50;;
53959;SDS011;39866;48.638;-2.020;2023-02-15T15:25:49;19.65;;;16.23;;
53959;SDS011;39866;48.638;-2.020;2023-02-15T15:31:02;18.35;;;15.23;;
53959;SDS011;39866;48.638;-2.020;2023-02-15T15:33:46;19.13;;;14.48;;
53959;SDS011;39866;48.638;-2.020;2023-02-15T15:39:25;18.05;;;14.73;;
53959;SDS011;39866;48.638;-2.020;2023-02-15T15:42:12;18.98;;;15.02;;
53959;SDS011;39866;48.638;-2.020;2023-02-15T15:47:54;19.75;;;14.63;;
53959;SDS011;39866;48.638;-2.020;2023-02-15T15:50:31;17.77;;;13.45;;
53959;SDS011;39866;48.638;-2.020;2023-02-15T15:52:58;18.45;;;13.30;;
53959;SDS011;39866;48.638;-2.020;2023-02-15T15:55:25;16.10;;;13.43;;
53959;SDS011;39866;48.638;-2.020;2023-02-15T15:57:58;16.13;;;11.80;;
53959;SDS011;39866;48.638;-2.020;2023-02-15T16:03:28;15.95;;;12.70;;
53959;SDS011;39866;48.638;-2.020;2023-02-15T16:05:54;19.30;;;12.85;;
53959;SDS011;39866;48.638;-2.020;2023-02-15T16:08:34;17.35;;;12.77;;
53959;SDS011;39866;48.638;-2.020;2023-02-15T16:11:14;16.90;;;12.90;;
53959;SDS011;39866;48.638;-2.020;2023-02-15T16:13:44;17.60;;;13.38;;
53959;SDS011;39866;48.638;-2.020;2023-02-15T16:16:11;14.75;;;12.43;;
53959;SDS011;39866;48.638;-2.020;2023-02-15T16:18:38;15.93;;;12.40;;
53959;SDS011;39866;48.638;-2.020;2023-02-15T16:21:12;14.40;;;12.38;;
53959;SDS011;39866;48.638;-2.020;2023-02-15T16:26:23;17.23;;;13.90;;
53959;SDS011;39866;48.638;-2.020;2023-02-15T16:28:54;15.68;;;13.13;;
53959;SDS011;39866;48.638;-2.020;2023-02-15T16:31:20;14.95;;;12.20;;
53959;SDS011;39866;48.638;-2.020;2023-02-15T16:33:52;16.83;;;12.50;;
53959;SDS011;39866;48.638;-2.020;2023-02-15T16:41:17;20.52;;;15.52;;
53959;SDS011;39866;48.638;-2.020;2023-02-15T16:43:47;18.50;;;13.55;;
53959;SDS011;39866;48.638;-2.020;2023-02-15T16:46:25;17.95;;;14.15;;
53959;SDS011;39866;48.638;-2.020;2023-02-15T16:48:53;17.58;;;11.90;;
53959;SDS011;39866;48.638;-2.020;2023-02-15T16:51:24;15.27;;;12.38;;
53959;SDS011;39866;48.638;-2.020;2023-02-15T16:53:55;22.75;;;16.63;;
53959;SDS011;39866;48.638;-2.020;2023-02-15T16:56:30;31.48;;;20.38;;
53959;SDS011;39866;48.638;-2.020;2023-02-15T16:58:56;29.15;;;19.15;;
53959;SDS011;39866;48.638;-2.020;2023-02-15T17:01:24;32.60;;;21.52;;
53959;SDS011;39866;48.638;-2.020;2023-02-15T17:04:10;24.95;;;18.48;;
53959;SDS011;39866;48.638;-2.020;2023-02-15T17:07:04;21.00;;;15.25;;
53959;SDS011;39866;48.638;-2.020;2023-02-15T17:09:32;20.60;;;14.43;;
53959;SDS011;39866;48.638;-2.020;2023-02-15T17:11:58;24.42;;;18.08;;
53959;SDS011;39866;48.638;-2.020;2023-02-15T17:14:27;31.38;;;20.40;;
53959;SDS011;39866;48.638;-2.020;2023-02-15T17:16:54;24.67;;;17.90;;
53959;SDS011;39866;48.638;-2.020;2023-02-15T17:19:26;24.13;;;18.15;;
53959;SDS011;39866;48.638;-2.020;2023-02-15T17:21:56;27.48;;;19.15;;
53959;SDS011;39866;48.638;-2.020;2023-02-15T17:24:42;23.90;;;18.13;;
53959;SDS011;39866;48.638;-2.020;2023-02-15T17:27:17;31.60;;;21.30;;
53959;SDS011;39866;48.638;-2.020;2023-02-15T17:29:50;36.88;;;22.27;;
53959;SDS011;39866;48.638;-2.020;2023-02-15T17:32:21;44.67;;;25.75;;
53959;SDS011;39866;48.638;-2.020;2023-02-15T17:34:50;36.10;;;21.98;;